Time;durP1;ratioP1;P1;durP2;ratioP2;P2;SDS_P1;SDS_P2;PMS_P1;PMS_P2;Temp;Humidity;BMP_temperature;BMP_pressure;BME280_temperature;BME280_humidity;BME280_pressure;Samples;Min_cycle;Max_cycle;Signal;HPM_P1;HPM_P2
2024/01/03 00:00:35;;;;;;;54.80;22.58;;;;;;;3.59;83.64;94926.38;5010147;28;20035;-80
2024/01/03 00:03:00;;;;;;;47.33;22.33;;;;;;;3.49;83.68;94911.31;5007965;28;20038;-81
2024/01/03 00:05:36;;;;;;;50.33;22.58;;;;;;;3.59;83.26;94900.97;5007756;28;20038;-80
2024/01/03 00:08:01;;;;;;;53.97;22.45;;;;;;;3.40;83.34;94882.03;5003839;28;20105;-80
2024/01/03 00:10:49;;;;;;;45.80;22.35;;;;;;;3.67;83.34;94931.25;4994620;28;20062;-80
2024/01/03 00:13:32;;;;;;;41.00;20.35;;;;;;;3.66;82.89;94932.31;4993203;28;20031;-80
2024/01/03 00:16:04;;;;;;;45.92;20.42;;;;;;;3.43;82.54;94936.59;4993011;28;20041;-80
2024/01/03 00:18:50;;;;;;;47.20;22.63;;;;;;;3.43;82.92;94923.50;4994244;28;20080;-80
2024/01/03 00:21:25;;;;;;;39.30;17.80;;;;;;;3.56;82.93;94943.41;4992544;28;20073;-80
2024/01/03 00:23:55;;;;;;;47.78;21.42;;;;;;;3.57;82.76;94931.91;4992907;28;20030;-80
2024/01/03 00:26:25;;;;;;;44.73;20.07;;;;;;;3.28;82.41;94919.84;4994187;28;20065;-80
2024/01/03 00:28:51;;;;;;;42.67;19.05;;;;;;;3.35;82.89;94941.47;4994532;28;20064;-79
2024/01/03 00:31:43;;;;;;;44.60;19.92;;;;;;;3.38;82.88;94940.97;4993130;28;20538;-80
2024/01/03 00:34:20;;;;;;;36.40;19.05;;;;;;;3.43;83.22;94925.34;4992819;28;20088;-80
2024/01/03 00:36:47;;;;;;;41.22;19.83;;;;;;;3.41;83.26;94915.09;4992734;28;20041;-80
2024/01/03 00:39:13;;;;;;;44.20;21.23;;;;;;;3.12;83.15;94868.97;4994483;28;20045;-80
2024/01/03 00:41:39;;;;;;;44.72;20.52;;;;;;;3.03;82.95;94897.34;4993893;28;20113;-80
2024/01/03 00:44:04;;;;;;;49.03;21.77;;;;;;;2.62;83.84;94835.53;4992692;28;20117;-80
2024/01/03 00:46:30;;;;;;;43.53;21.73;;;;;;;2.87;84.49;94924.28;4992340;28;20199;-80
2024/01/03 00:48:56;;;;;;;48.85;22.58;;;;;;;2.66;85.33;94881.19;4992230;28;20026;-80
2024/01/03 00:51:21;;;;;;;51.00;23.77;;;;;;;2.72;86.24;94905.63;4992509;28;20501;-80
2024/01/03 00:53:47;;;;;;;48.17;21.00;;;;;;;2.60;86.49;94876.03;4993959;28;20042;-80
2024/01/03 00:56:12;;;;;;;52.70;23.60;;;;;;;2.76;85.93;94901.50;4992775;28;20072;-79
2024/01/03 00:58:39;;;;;;;50.05;24.00;;;;;;;2.74;86.57;94894.94;4993122;28;20031;-79
2024/01/03 01:01:04;;;;;;;54.28;24.58;;;;;;;2.84;86.50;94922.09;4992809;28;20069;-79
2024/01/03 01:03:30;;;;;;;53.47;24.08;;;;;;;2.75;87.20;94927.97;4994075;28;20037;-79
2024/01/03 01:05:56;;;;;;;50.60;25.15;;;;;;;2.76;87.97;94911.19;4993089;28;20033;-79
2024/01/03 01:08:22;;;;;;;53.63;25.67;;;;;;;2.94;87.63;94916.28;4992770;28;20034;-79
2024/01/03 01:10:48;;;;;;;55.45;25.70;;;;;;;3.00;87.26;94902.25;4992877;28;20373;-79
2024/01/03 01:13:13;;;;;;;58.42;25.98;;;;;;;3.13;87.49;94922.16;4992293;28;20041;-79
2024/01/03 01:15:39;;;;;;;63.63;27.50;;;;;;;3.09;87.11;94898.25;4992281;28;20492;-79
2024/01/03 01:18:04;;;;;;;53.55;25.38;;;;;;;2.99;86.78;94871.84;4992467;28;20061;-79
2024/01/03 01:20:30;;;;;;;59.75;25.15;;;;;;;3.34;86.55;94916.28;4992613;28;20041;-79
2024/01/03 01:22:55;;;;;;;55.17;25.45;;;;;;;3.29;86.45;94887.31;4991953;28;20038;-80
2024/01/03 01:25:21;;;;;;;60.58;26.20;;;;;;;3.31;86.43;94899.19;4991285;28;20421;-79
2024/01/03 01:27:46;;;;;;;65.85;26.02;;;;;;;3.27;85.83;94905.94;4991048;28;20065;-80
2024/01/03 01:30:12;;;;;;;57.10;26.73;;;;;;;3.20;86.32;94884.31;4992287;28;20038;-80
2024/01/03 01:32:37;;;;;;;61.22;26.98;;;;;;;3.39;86.97;94903.25;4992371;28;20026;-80
2024/01/03 01:35:03;;;;;;;52.83;25.42;;;;;;;3.13;86.31;94865.28;4991163;28;20037;-80
2024/01/03 01:37:29;;;;;;;51.38;26.23;;;;;;;3.06;86.32;94867.25;4992420;28;20030;-80
2024/01/03 01:39:54;;;;;;;57.35;25.55;;;;;;;3.08;85.88;94847.66;4991146;28;20168;-80
2024/01/03 01:42:20;;;;;;;52.90;25.83;;;;;;;3.17;87.50;94884.78;4992411;28;20038;-80
2024/01/03 01:44:45;;;;;;;50.63;25.15;;;;;;;3.15;87.04;94872.91;4991401;28;20034;-80
2024/01/03 01:47:12;;;;;;;56.53;25.65;;;;;;;3.27;87.41;94890.19;4992889;28;20130;-80
2024/01/03 01:49:40;;;;;;;53.20;24.98;;;;;;;2.95;87.43;94863.66;4990890;28;20515;-80
2024/01/03 01:52:10;;;;;;;46.08;22.85;;;;;;;3.01;87.52;94846.22;4992315;28;20034;-80
2024/01/03 01:54:37;;;;;;;54.30;25.58;;;;;;;3.44;87.61;94891.00;4992608;28;20497;-80
2024/01/03 01:57:03;;;;;;;49.90;23.33;;;;;;;3.08;87.07;94845.03;4991298;28;20045;-80
2024/01/03 01:59:29;;;;;;;44.78;22.17;;;;;;;2.73;87.26;94773.69;4991175;28;20042;-80
2024/01/03 02:01:57;;;;;;;52.38;24.15;;;;;;;3.45;87.09;94865.59;4992626;28;20026;-80
2024/01/03 02:04:22;;;;;;;48.25;25.02;;;;;;;3.28;86.79;94831.50;5004496;28;20492;-81
2024/01/03 02:06:49;;;;;;;52.15;23.63;;;;;;;3.04;85.84;94862.28;5003586;28;20037;-81
2024/01/03 02:09:14;;;;;;;42.00;21.17;;;;;;;2.40;87.61;94800.53;4996008;28;20110;-81
2024/01/03 02:11:47;;;;;;;42.75;21.33;;;;;;;2.71;88.44;94812.41;4992164;28;20100;-80
2024/01/03 02:14:13;;;;;;;53.60;22.45;;;;;;;3.24;87.91;94895.91;4991508;28;20429;-80
2024/01/03 02:16:38;;;;;;;45.78;21.15;;;;;;;3.19;87.92;94874.84;4991332;28;20026;-81
2024/01/03 02:19:04;;;;;;;40.55;20.90;;;;;;;3.26;87.30;94875.50;4991266;28;20505;-80
2024/01/03 02:21:30;;;;;;;40.28;20.50;;;;;;;3.47;87.34;94898.41;4990812;28;20540;-81
2024/01/03 02:23:56;;;;;;;41.60;21.35;;;;;;;3.23;87.02;94839.28;4992503;28;20038;-81
2024/01/03 02:26:21;;;;;;;40.95;19.95;;;;;;;3.56;86.59;94903.28;4992530;28;20030;-80
2024/01/03 02:28:47;;;;;;;42.13;19.80;;;;;;;3.38;86.94;94878.06;4992550;28;20057;-80
2024/01/03 02:31:12;;;;;;;33.55;19.10;;;;;;;3.49;86.96;94879.84;4990814;28;20049;-81
2024/01/03 02:33:38;;;;;;;38.28;19.38;;;;;;;3.44;86.76;94864.78;4991049;28;20057;-80
2024/01/03 02:36:04;;;;;;;35.42;18.30;;;;;;;3.58;86.51;94885.50;4990975;28;20105;-81
2024/01/03 02:38:30;;;;;;;40.35;18.92;;;;;;;3.15;86.01;94808.22;4991101;28;20034;-80
2024/01/03 02:40:55;;;;;;;36.17;18.35;;;;;;;3.52;86.20;94876.72;4990995;28;20034;-81
2024/01/03 02:43:21;;;;;;;37.28;18.58;;;;;;;3.41;86.27;94848.75;4990855;28;20030;-80
2024/01/03 02:45:46;;;;;;;32.47;17.17;;;;;;;3.46;86.16;94875.06;4992347;28;20425;-81
2024/01/03 02:48:12;;;;;;;30.45;17.08;;;;;;;3.51;85.90;94871.75;4992648;28;20045;-80
2024/01/03 02:50:39;;;;;;;38.65;17.33;;;;;;;3.11;85.52;94807.09;4992063;28;20037;-80
2024/01/03 02:53:05;;;;;;;32.60;16.48;;;;;;;3.47;86.02;94858.28;4990641;28;20038;-81
2024/01/03 02:55:30;;;;;;;29.38;16.83;;;;;;;2.97;86.07;94779.63;4992513;28;20552;-81
2024/01/03 02:57:56;;;;;;;39.63;17.35;;;;;;;3.26;86.23;94819.69;4991944;28;20034;-80
2024/01/03 03:00:22;;;;;;;33.28;16.75;;;;;;;3.51;86.68;94861.25;4990767;28;20038;-80
2024/01/03 03:02:47;;;;;;;32.88;17.55;;;;;;;3.14;86.41;94790.09;4990661;28;20034;-81
2024/01/03 03:05:13;;;;;;;33.80;17.63;;;;;;;3.25;86.74;94800.53;4992071;28;20035;-81
2024/01/03 03:07:38;;;;;;;38.65;17.63;;;;;;;3.00;86.63;94789.59;4991092;28;20515;-81
2024/01/03 03:10:04;;;;;;;33.33;17.90;;;;;;;3.27;87.41;94829.94;4990770;28;20049;-81
2024/01/03 03:12:29;;;;;;;33.75;16.35;;;;;;;2.97;87.77;94756.03;4991609;28;20125;-80
2024/01/03 03:14:55;;;;;;;34.75;17.00;;;;;;;3.48;87.39;94831.06;4991271;28;20031;-80
2024/01/03 03:17:20;;;;;;;36.00;18.70;;;;;;;3.70;87.06;94845.03;4989707;28;20026;-80
2024/01/03 03:19:46;;;;;;;38.78;19.17;;;;;;;3.46;87.34;94807.69;4991519;28;20530;-80
2024/01/03 03:22:13;;;;;;;62.45;26.55;;;;;;;3.48;87.82;94823.19;4990577;28;20417;-80
2024/01/03 03:24:38;;;;;;;67.38;32.80;;;;;;;3.42;86.88;94813.66;5006348;28;20041;-81
2024/01/03 03:27:04;;;;;;;64.15;29.42;;;;;;;3.68;86.93;94828.75;5004714;28;20046;-81
2024/01/03 03:29:30;;;;;;;61.10;28.42;;;;;;;3.29;86.25;94761.53;5005239;28;20420;-81
2024/01/03 03:31:55;;;;;;;73.05;28.80;;;;;;;3.84;86.04;94838.44;5007118;28;20030;-80
2024/01/03 03:34:21;;;;;;;60.97;27.98;;;;;;;3.48;85.88;94770.75;5008530;28;20042;-80
2024/01/03 03:36:46;;;;;;;72.97;33.42;;;;;;;3.59;85.54;94811.81;5009279;28;20520;-80
2024/01/03 03:39:12;;;;;;;80.47;35.28;;;;;;;3.72;84.82;94842.97;5009674;28;20034;-81
2024/01/03 03:41:37;;;;;;;81.60;36.08;;;;;;;3.70;84.80;94808.31;5008376;28;20034;-80
2024/01/03 03:44:03;;;;;;;80.20;33.30;;;;;;;3.63;84.15;94789.34;5007901;28;20037;-81
2024/01/03 03:46:29;;;;;;;73.80;30.67;;;;;;;3.20;84.43;94742.00;4999486;28;20057;-79
2024/01/03 03:48:55;;;;;;;61.55;27.85;;;;;;;3.60;84.40;94800.28;4994296;28;20093;-79
2024/01/03 03:51:20;;;;;;;71.78;31.40;;;;;;;3.73;84.23;94822.81;4995557;28;20477;-79
2024/01/03 03:53:46;;;;;;;68.88;27.13;;;;;;;3.71;84.83;94822.25;4994368;28;20030;-79
2024/01/03 03:56:22;;;;;;;71.68;28.90;;;;;;;3.75;84.75;94816.25;4994251;28;20034;-80
2024/01/03 03:58:47;;;;;;;63.55;27.80;;;;;;;3.55;84.71;94767.97;4993955;28;20045;-79
2024/01/03 04:01:13;;;;;;;65.95;29.40;;;;;;;3.82;84.45;94818.72;4995135;28;20066;-79
2024/01/03 04:03:38;;;;;;;58.65;28.42;;;;;;;3.80;84.00;94810.31;4993863;28;20030;-79
2024/01/03 04:06:04;;;;;;;65.40;28.25;;;;;;;3.62;83.46;94802.69;4995904;28;20039;-79
2024/01/03 04:08:29;;;;;;;60.65;25.80;;;;;;;3.60;83.50;94800.28;4993980;28;20030;-79
2024/01/03 04:10:55;;;;;;;52.45;25.58;;;;;;;3.78;83.15;94828.91;4994968;28;20027;-79
2024/01/03 04:13:20;;;;;;;47.78;23.45;;;;;;;3.58;82.91;94788.47;4993918;28;20483;-79
2024/01/03 04:15:46;;;;;;;53.47;23.30;;;;;;;3.71;82.75;94824.84;4994493;28;20489;-79
2024/01/03 04:18:11;;;;;;;49.10;22.92;;;;;;;3.19;82.70;94738.59;4993395;28;20037;-79
2024/01/03 04:20:37;;;;;;;51.90;24.60;;;;;;;3.38;81.65;94779.25;4994036;28;20049;-79
2024/01/03 04:23:03;;;;;;;55.85;23.85;;;;;;;3.56;82.11;94814.13;4993258;28;20124;-80
2024/01/03 04:25:28;;;;;;;43.95;22.80;;;;;;;3.44;82.58;94783.53;4992363;28;20026;-80
2024/01/03 04:27:54;;;;;;;52.83;23.00;;;;;;;3.50;82.10;94810.66;4992266;28;20061;-80
2024/01/03 04:30:19;;;;;;;48.05;23.13;;;;;;;3.54;82.55;94809.13;4993721;28;20034;-80
2024/01/03 04:32:45;;;;;;;51.92;23.13;;;;;;;3.31;82.89;94796.16;4994505;28;20065;-80
2024/01/03 04:35:10;;;;;;;47.70;22.00;;;;;;;3.16;82.69;94769.69;4992198;28;20417;-80
2024/01/03 04:37:36;;;;;;;55.13;24.38;;;;;;;3.57;83.11;94839.31;4992222;28;20030;-80
2024/01/03 04:40:02;;;;;;;46.90;23.30;;;;;;;3.69;83.14;94845.28;4993589;28;20040;-80
2024/01/03 04:42:28;;;;;;;43.20;21.27;;;;;;;3.24;82.11;94803.38;4992110;28;20098;-80
2024/01/03 04:44:53;;;;;;;56.20;24.00;;;;;;;3.43;82.87;94831.75;4991800;28;20485;-80
2024/01/03 04:47:19;;;;;;;43.10;22.17;;;;;;;3.43;83.89;94842.22;4992042;28;20067;-79
2024/01/03 04:49:44;;;;;;;45.30;22.00;;;;;;;3.46;84.31;94830.50;4991790;28;20587;-80
2024/01/03 04:52:11;;;;;;;48.40;22.42;;;;;;;3.25;84.15;94784.00;4992101;28;20037;-80
2024/01/03 04:54:37;;;;;;;54.85;24.13;;;;;;;3.42;84.41;94805.78;4993422;28;20018;-80
2024/01/03 04:57:03;;;;;;;45.58;21.90;;;;;;;3.36;84.58;94806.72;4992183;28;20134;-80
2024/01/03 04:59:29;;;;;;;43.28;20.85;;;;;;;3.46;84.78;94802.44;4991900;28;20042;-80
2024/01/03 05:01:54;;;;;;;45.90;22.33;;;;;;;3.57;84.94;94820.97;4993453;28;20383;-79
2024/01/03 05:04:19;;;;;;;45.03;20.05;;;;;;;3.43;84.73;94813.41;4983674;28;20283;-80
2024/01/03 05:06:45;;;;;;;43.10;22.33;;;;;;;3.62;84.82;94842.03;4971830;28;20421;-80
2024/01/03 05:09:10;;;;;;;48.65;21.35;;;;;;;3.57;84.75;94820.97;4985345;28;20030;-80
2024/01/03 05:11:36;;;;;;;44.08;22.55;;;;;;;3.61;84.81;94822.88;4976746;28;20520;-79
2024/01/03 05:14:02;;;;;;;36.67;20.33;;;;;;;3.58;84.64;94830.44;4975316;28;20057;-80
2024/01/03 05:16:27;;;;;;;45.67;21.00;;;;;;;3.12;84.83;94781.69;4971491;28;20047;-79
2024/01/03 05:18:53;;;;;;;50.90;22.20;;;;;;;2.99;85.34;94773.09;4972756;28;20521;-80
2024/01/03 05:21:19;;;;;;;43.65;22.30;;;;;;;3.19;85.42;94790.22;4967268;28;20054;-80
2024/01/03 05:23:47;;;;;;;43.20;21.25;;;;;;;3.26;85.13;94790.84;4975898;28;20034;-79
2024/01/03 05:26:14;;;;;;;49.05;22.05;;;;;;;2.95;86.15;94766.75;4974655;28;20180;-80
2024/01/03 05:28:42;;;;;;;43.63;20.67;;;;;;;3.38;86.07;94813.31;4972578;28;20050;-80
2024/01/03 05:31:08;;;;;;;47.25;22.38;;;;;;;3.27;85.96;94797.69;4951392;28;20034;-81
2024/01/03 05:33:34;;;;;;;40.00;20.02;;;;;;;3.19;85.52;94785.75;4945664;28;20292;-80
2024/01/03 05:35:59;;;;;;;49.38;23.42;;;;;;;3.60;85.23;94847.50;4956995;28;20035;-80
2024/01/03 05:38:25;;;;;;;45.35;22.17;;;;;;;3.51;84.93;94827.16;4956203;28;20061;-81
2024/01/03 05:40:50;;;;;;;44.97;21.70;;;;;;;3.07;86.06;94793.66;4956547;28;20038;-80
2024/01/03 05:43:17;;;;;;;46.15;23.00;;;;;;;3.48;85.71;94852.81;4955780;28;20479;-80
2024/01/03 05:45:42;;;;;;;49.20;21.48;;;;;;;3.35;84.97;94834.00;4975713;28;20591;-80
2024/01/03 05:48:08;;;;;;;42.22;21.25;;;;;;;3.45;84.07;94842.78;4974161;28;20041;-80
2024/01/03 05:50:34;;;;;;;50.17;20.85;;;;;;;3.26;84.11;94824.91;4953729;28;20559;-80
2024/01/03 05:52:59;;;;;;;43.50;20.65;;;;;;;3.30;83.96;94826.81;4968677;28;20647;-81
2024/01/03 05:55:25;;;;;;;45.97;19.83;;;;;;;3.24;83.93;94819.09;4973793;28;20149;-81
2024/01/03 05:57:50;;;;;;;40.85;19.42;;;;;;;3.01;83.73;94786.75;4969333;28;20420;-80
2024/01/03 06:00:16;;;;;;;44.92;19.80;;;;;;;3.35;83.46;94834.00;4967966;28;20030;-80
2024/01/03 06:02:42;;;;;;;40.88;18.27;;;;;;;3.38;83.82;94829.06;4973779;28;20035;-81
2024/01/03 06:05:09;;;;;;;38.22;19.02;;;;;;;3.42;84.07;94832.00;4968695;28;20042;-81
2024/01/03 06:07:35;;;;;;;39.53;18.00;;;;;;;3.16;83.80;94780.97;4973181;28;20045;-81
2024/01/03 06:10:01;;;;;;;37.65;17.10;;;;;;;2.92;84.13;94767.22;4957420;28;21835;-80
2024/01/03 06:12:26;;;;;;;38.63;17.25;;;;;;;2.87;84.82;94748.78;4958367;28;20297;-81
2024/01/03 06:14:52;;;;;;;29.90;15.80;;;;;;;2.97;84.78;94769.13;4971847;28;20122;-80
2024/01/03 06:17:17;;;;;;;30.40;15.07;;;;;;;3.10;85.78;94805.50;4974263;28;20064;-80
2024/01/03 06:19:44;;;;;;;32.72;15.65;;;;;;;3.28;86.08;94833.34;4972162;28;20030;-80
2024/01/03 06:22:10;;;;;;;29.90;16.40;;;;;;;3.08;86.13;94786.59;4955973;28;20085;-77
2024/01/03 06:24:35;;;;;;;31.70;15.82;;;;;;;3.19;86.52;94825.06;4950272;28;20034;-78
2024/01/03 06:27:01;;;;;;;32.20;15.07;;;;;;;3.23;86.62;94826.16;4939335;28;20465;-78
2024/01/03 06:29:26;;;;;;;33.22;16.40;;;;;;;3.00;86.53;94789.59;4930452;28;20460;-78
2024/01/03 06:31:52;;;;;;;34.05;15.90;;;;;;;2.81;86.92;94773.31;4933490;28;20871;-79
2024/01/03 06:34:17;;;;;;;34.85;15.82;;;;;;;3.24;87.26;94795.53;4932684;28;20147;-79
2024/01/03 06:36:43;;;;;;;31.80;16.10;;;;;;;3.32;87.34;94813.47;4932075;28;20455;-79
2024/01/03 06:39:08;;;;;;;27.77;15.00;;;;;;;3.36;87.10;94814.59;4933037;28;20049;-79
2024/01/03 06:41:34;;;;;;;30.77;15.88;;;;;;;3.47;87.69;94803.25;4950265;28;20411;-79
2024/01/03 06:43:59;;;;;;;37.97;16.38;;;;;;;3.45;87.60;94798.22;4956969;28;20052;-79
2024/01/03 06:46:27;;;;;;;38.17;16.67;;;;;;;3.48;87.71;94803.00;4954525;28;20034;-79
2024/01/03 06:48:52;;;;;;;34.50;15.77;;;;;;;3.61;87.69;94796.66;4974419;28;20049;-79
2024/01/03 06:51:21;;;;;;;34.92;16.90;;;;;;;3.60;87.52;94804.75;4953613;28;20115;-79
2024/01/03 06:53:46;;;;;;;34.00;14.88;;;;;;;3.77;87.97;94823.91;4948117;28;20413;-79
2024/01/03 06:56:12;;;;;;;33.30;16.60;;;;;;;3.85;88.30;94837.41;4954218;28;20045;-79
2024/01/03 06:58:37;;;;;;;33.78;15.27;;;;;;;3.75;88.03;94818.88;4953332;28;20045;-79
2024/01/03 07:01:03;;;;;;;34.30;15.63;;;;;;;3.91;87.59;94826.97;4939161;28;20038;-79
2024/01/03 07:03:29;;;;;;;29.73;14.57;;;;;;;3.92;87.58;94807.59;4963055;28;20436;-79
2024/01/03 07:05:54;;;;;;;30.42;15.07;;;;;;;4.04;87.57;94813.56;4963201;28;20069;-79
2024/01/03 07:08:20;;;;;;;34.17;17.05;;;;;;;4.05;87.20;94796.75;4966569;28;20038;-80
2024/01/03 07:10:45;;;;;;;41.00;18.92;;;;;;;3.74;87.26;94758.78;4970213;28;20081;-79
2024/01/03 07:13:11;;;;;;;36.50;16.67;;;;;;;4.18;87.26;94817.41;4932631;28;20042;-80
2024/01/03 07:15:36;;;;;;;29.30;14.73;;;;;;;4.20;87.42;94825.81;4938568;28;20711;-79
2024/01/03 07:18:02;;;;;;;35.45;16.10;;;;;;;3.94;87.31;94779.28;4935490;28;20126;-79
2024/01/03 07:20:28;;;;;;;38.63;16.48;;;;;;;4.26;87.89;94820.44;4940213;28;20034;-79
2024/01/03 07:22:53;;;;;;;51.97;20.27;;;;;;;4.04;87.06;94792.56;4942433;28;20034;-79
2024/01/03 07:25:19;;;;;;;47.92;19.55;;;;;;;3.87;87.44;94761.09;4937606;28;20042;-79
2024/01/03 07:27:46;;;;;;;48.47;21.23;;;;;;;3.83;87.48;94781.75;4944256;28;20512;-78
2024/01/03 07:30:12;;;;;;;40.08;18.90;;;;;;;4.02;87.22;94802.50;4938695;28;20511;-78
2024/01/03 07:32:38;;;;;;;39.20;20.02;;;;;;;4.18;87.32;94806.91;4943276;28;20387;-79
2024/01/03 07:35:05;;;;;;;38.83;19.65;;;;;;;4.02;86.98;94773.63;4956761;28;20054;-78
2024/01/03 07:37:30;;;;;;;45.05;21.10;;;;;;;4.15;86.49;94799.50;4957466;28;21440;-79
2024/01/03 07:39:56;;;;;;;36.90;19.00;;;;;;;3.92;86.42;94782.16;4958464;28;20771;-78
2024/01/03 07:42:21;;;;;;;42.85;17.35;;;;;;;3.98;87.06;94796.13;4958524;28;20065;-78
2024/01/03 07:44:47;;;;;;;36.75;18.25;;;;;;;3.94;87.31;94792.41;4962856;28;20226;-78
2024/01/03 07:47:12;;;;;;;37.53;19.15;;;;;;;3.69;87.11;94730.69;4960863;28;20050;-78
2024/01/03 07:49:38;;;;;;;40.13;19.80;;;;;;;4.11;87.37;94783.47;4970041;28;20074;-80
2024/01/03 07:52:05;;;;;;;40.20;18.33;;;;;;;4.40;87.76;94830.56;4976856;28;20050;-79
2024/01/03 07:54:31;;;;;;;41.10;18.45;;;;;;;4.08;87.21;94760.34;4968965;28;20045;-79
2024/01/03 07:56:57;;;;;;;38.25;18.33;;;;;;;4.11;87.16;94770.34;4972431;28;20041;-78
2024/01/03 07:59:23;;;;;;;37.90;18.65;;;;;;;4.28;87.40;94784.19;4982373;28;20084;-79
2024/01/03 08:01:49;;;;;;;41.83;19.63;;;;;;;4.40;87.64;94801.69;4976963;28;20390;-79
2024/01/03 08:04:18;;;;;;;35.15;18.33;;;;;;;4.64;87.78;94821.41;4979795;28;20777;-79
2024/01/03 08:06:43;;;;;;;40.35;18.50;;;;;;;4.18;87.53;94763.09;4979540;28;20642;-78
2024/01/03 08:09:10;;;;;;;41.28;18.33;;;;;;;4.18;88.40;94776.22;4985092;28;20058;-78
2024/01/03 08:11:36;;;;;;;35.40;17.33;;;;;;;4.37;88.65;94778.53;4970752;28;20497;-80
2024/01/03 08:14:02;;;;;;;38.42;19.00;;;;;;;4.62;88.75;94789.34;4962551;28;20038;-79
2024/01/03 08:16:28;;;;;;;38.08;19.85;;;;;;;4.52;88.82;94791.84;4963894;28;20387;-78
2024/01/03 08:18:54;;;;;;;39.55;18.83;;;;;;;4.15;89.63;94726.03;4966865;28;20326;-80
2024/01/03 08:21:20;;;;;;;35.65;16.85;;;;;;;4.35;89.27;94731.50;4960948;28;20034;-80
2024/01/03 08:23:46;;;;;;;34.00;16.83;;;;;;;4.71;89.08;94785.25;4952781;28;20054;-79
2024/01/03 08:26:12;;;;;;;29.00;16.83;;;;;;;4.49;89.04;94719.63;4969443;28;20125;-78
2024/01/03 08:28:41;;;;;;;35.08;17.50;;;;;;;5.00;88.71;94788.44;4966871;28;20142;-80
2024/01/03 08:31:17;;;;;;;34.63;17.17;;;;;;;5.01;88.63;94803.16;4976560;28;20036;-79
2024/01/03 08:33:46;;;;;;;34.75;18.40;;;;;;;5.09;88.78;94807.97;4976604;28;20089;-78
2024/01/03 08:36:13;;;;;;;58.88;25.88;;;;;;;4.69;88.79;94771.56;4973733;28;20553;-79
2024/01/03 08:38:39;;;;;;;76.03;35.10;;;;;;;5.03;87.90;94809.75;4958597;28;20130;-79
2024/01/03 08:41:19;;;;;;;106.72;45.20;;;;;;;4.19;86.93;94677.28;4983136;28;20065;-78
2024/01/03 08:43:46;;;;;;;82.55;40.65;;;;;;;4.95;87.00;94788.41;4954558;28;20424;-78
2024/01/03 08:46:12;;;;;;;74.07;35.25;;;;;;;4.67;85.36;94786.75;4976312;28;20034;-79
2024/01/03 08:48:42;;;;;;;79.75;36.60;;;;;;;4.66;85.85;94749.19;4979208;28;20069;-79
2024/01/03 08:51:12;;;;;;;76.38;33.83;;;;;;;4.90;85.27;94783.06;4977327;28;20030;-79
2024/01/03 08:53:38;;;;;;;70.22;31.80;;;;;;;5.03;85.00;94815.00;4963837;28;20062;-78
2024/01/03 08:56:14;;;;;;;62.70;31.50;;;;;;;5.12;85.18;94788.28;4972253;28;20594;-79
2024/01/03 08:58:41;;;;;;;63.60;29.92;;;;;;;5.16;84.79;94782.28;4965650;28;20037;-79
2024/01/03 09:01:06;;;;;;;84.32;31.85;;;;;;;4.83;83.85;94743.84;4966676;28;20530;-78
2024/01/03 09:03:32;;;;;;;68.13;30.95;;;;;;;4.71;84.48;94703.03;4959778;28;20043;-80
2024/01/03 09:05:57;;;;;;;63.50;30.77;;;;;;;4.74;84.09;94702.50;4967774;28;20065;-80
2024/01/03 09:08:23;;;;;;;51.70;27.40;;;;;;;5.16;84.38;94763.88;4964922;28;20388;-80
2024/01/03 09:10:49;;;;;;;52.00;25.58;;;;;;;4.53;83.72;94662.94;4963299;28;20125;-80
2024/01/03 09:13:14;;;;;;;56.42;26.67;;;;;;;5.02;83.73;94744.31;4967148;28;20030;-80
2024/01/03 09:15:40;;;;;;;61.80;29.67;;;;;;;5.21;83.64;94771.00;4965752;28;20269;-80
2024/01/03 09:18:05;;;;;;;61.42;27.23;;;;;;;4.76;84.46;94708.31;4962999;28;20030;-80
2024/01/03 09:20:31;;;;;;;60.28;28.95;;;;;;;4.95;84.61;94731.38;4968977;28;20061;-80
2024/01/03 09:22:58;;;;;;;61.25;29.38;;;;;;;5.11;84.65;94747.28;4982986;28;20069;-80
2024/01/03 09:25:23;;;;;;;79.53;30.17;;;;;;;5.05;84.75;94733.28;4980926;28;20605;-80
2024/01/03 09:27:49;;;;;;;66.07;30.15;;;;;;;4.76;84.64;94685.47;4998719;28;20085;-79
2024/01/03 09:30:15;;;;;;;76.80;29.60;;;;;;;5.14;84.55;94729.16;4994287;28;20345;-79
2024/01/03 09:32:41;;;;;;;66.60;27.92;;;;;;;5.20;84.47;94728.16;4995444;28;20035;-79
2024/01/03 09:35:07;;;;;;;54.45;24.88;;;;;;;5.35;84.68;94751.94;4995565;28;20122;-80
2024/01/03 09:37:32;;;;;;;53.35;24.35;;;;;;;5.07;83.44;94768.00;4999027;28;20045;-80
2024/01/03 09:39:58;;;;;;;54.20;25.23;;;;;;;4.93;84.48;94727.41;4996822;28;20062;-80
2024/01/03 09:42:25;;;;;;;58.67;24.25;;;;;;;5.04;84.00;94716.72;4982959;28;20093;-80
2024/01/03 09:44:51;;;;;;;58.10;27.10;;;;;;;5.13;83.90;94726.78;4954400;28;20122;-80
2024/01/03 09:47:20;;;;;;;67.10;27.15;;;;;;;4.95;84.44;94684.06;4966183;28;20040;-80
2024/01/03 09:49:46;;;;;;;53.72;24.70;;;;;;;4.85;85.14;94681.34;4978830;28;20045;-80
2024/01/03 09:52:12;;;;;;;51.13;24.08;;;;;;;5.07;85.16;94697.03;4970921;28;20811;-80
2024/01/03 09:54:41;;;;;;;50.70;25.50;;;;;;;5.26;85.56;94737.69;4949575;28;20475;-80
2024/01/03 09:57:07;;;;;;;50.00;25.65;;;;;;;5.33;85.26;94738.28;4968661;28;20685;-80
2024/01/03 09:59:34;;;;;;;59.03;28.42;;;;;;;4.78;84.67;94635.31;4976429;28;20050;-80
2024/01/03 10:01:59;;;;;;;62.08;29.25;;;;;;;4.93;84.75;94674.84;4977911;28;20030;-80
2024/01/03 10:04:26;;;;;;;65.47;30.10;;;;;;;5.44;84.86;94749.66;4984626;28;20096;-80
2024/01/03 10:06:53;;;;;;;75.35;30.40;;;;;;;5.21;84.66;94703.47;4971338;28;20041;-79
2024/01/03 10:09:20;;;;;;;56.78;28.00;;;;;;;5.49;84.53;94733.13;4978981;28;20030;-79
2024/01/03 10:11:46;;;;;;;55.03;27.45;;;;;;;5.40;84.73;94727.53;4977071;28;20041;-79
2024/01/03 10:14:22;;;;;;;67.00;29.55;;;;;;;5.13;85.22;94658.44;4978814;28;20071;-78
2024/01/03 10:16:48;;;;;;;55.53;28.45;;;;;;;5.26;84.46;94710.59;4979720;28;20434;-78
2024/01/03 10:19:16;;;;;;;64.35;29.20;;;;;;;5.54;84.42;94733.16;4978661;28;20659;-78
2024/01/03 10:21:54;;;;;;;54.58;28.08;;;;;;;5.08;85.04;94668.94;4976953;28;20022;-78
2024/01/03 10:24:25;;;;;;;49.75;26.92;;;;;;;5.44;85.70;94739.13;4978546;28;20075;-80
2024/01/03 10:26:51;;;;;;;57.60;27.33;;;;;;;5.36;85.57;94719.34;4968450;28;20069;-78
2024/01/03 10:29:18;;;;;;;53.85;27.58;;;;;;;5.42;86.02;94720.16;4975206;28;20038;-80
2024/01/03 10:31:46;;;;;;;48.65;25.60;;;;;;;5.29;85.95;94691.69;4975213;28;20038;-79
2024/01/03 10:34:17;;;;;;;44.45;23.63;;;;;;;5.13;85.57;94663.69;4967803;28;20470;-79
2024/01/03 10:36:46;;;;;;;46.47;23.52;;;;;;;5.49;86.13;94697.09;4964254;28;20026;-81
2024/01/03 10:39:15;;;;;;;50.25;24.58;;;;;;;5.09;85.54;94616.13;4956831;28;20596;-82
2024/01/03 10:41:45;;;;;;;45.58;22.63;;;;;;;4.96;86.45;94614.69;4959102;28;20396;-81
2024/01/03 10:44:14;;;;;;;49.75;23.02;;;;;;;5.56;86.59;94676.63;4965900;28;20678;-82
2024/01/03 10:46:47;;;;;;;46.95;22.80;;;;;;;5.45;86.13;94661.81;4971368;28;20098;-83
2024/01/03 10:49:13;;;;;;;44.67;21.88;;;;;;;4.84;86.05;94552.84;4975259;28;20045;-81
2024/01/03 10:51:41;;;;;;;45.78;23.42;;;;;;;5.48;86.62;94644.75;4980897;28;20038;-83
2024/01/03 10:54:14;;;;;;;47.00;22.75;;;;;;;5.68;86.16;94671.97;4973959;28;20039;-81
2024/01/03 10:56:46;;;;;;;43.17;21.80;;;;;;;5.28;86.62;94605.97;4975455;28;20319;-81
2024/01/03 10:59:14;;;;;;;39.72;20.98;;;;;;;5.48;87.02;94647.38;4978011;28;20048;-82
2024/01/03 11:02:06;;;;;;;45.38;21.95;;;;;;;5.68;87.17;94671.16;4960874;28;20042;-82
2024/01/03 11:04:40;;;;;;;36.38;19.75;;;;;;;5.80;86.66;94656.75;4973235;28;20521;-82
2024/01/03 11:07:18;;;;;;;42.97;20.77;;;;;;;5.64;86.37;94664.84;4976414;28;20038;-82
2024/01/03 11:09:44;;;;;;;43.38;21.58;;;;;;;5.41;85.94;94622.09;4966920;28;20047;-82
2024/01/03 11:12:13;;;;;;;48.85;24.95;;;;;;;5.36;86.54;94631.78;4975486;28;20049;-80
2024/01/03 11:14:39;;;;;;;45.40;21.55;;;;;;;5.06;86.75;94590.31;4977540;28;20069;-81
2024/01/03 11:17:08;;;;;;;54.50;25.13;;;;;;;5.23;87.04;94619.88;4971558;28;20042;-82
2024/01/03 11:19:35;;;;;;;51.97;24.88;;;;;;;5.19;88.33;94607.50;4985575;28;20212;-80
2024/01/03 11:22:05;;;;;;;50.25;23.55;;;;;;;5.35;88.08;94614.41;4965376;28;20083;-81